sensor_id;sensor_type;location;lat;lon;timestamp;temperature;humidity
22968;DHT22;11650;48.106;-1.696;2024-01-07T00:01:34;4.20;99.90
22968;DHT22;11650;48.106;-1.696;2024-01-07T00:04:00;4.10;99.90
22968;DHT22;11650;48.106;-1.696;2024-01-07T00:06:26;4.10;99.90
22968;DHT22;11650;48.106;-1.696;2024-01-07T00:08:51;4.10;99.90
22968;DHT22;11650;48.106;-1.696;2024-01-07T00:11:17;4.00;99.90
22968;DHT22;11650;48.106;-1.696;2024-01-07T00:13:42;4.00;99.90
22968;DHT22;11650;48.106;-1.696;2024-01-07T00:16:08;3.90;99.90
22968;DHT22;11650;48.106;-1.696;2024-01-07T00:18:34;3.90;99.90
22968;DHT22;11650;48.106;-1.696;2024-01-07T00:20:59;3.80;99.90
22968;DHT22;11650;48.106;-1.696;2024-01-07T00:23:25;3.80;99.90
22968;DHT22;11650;48.106;-1.696;2024-01-07T00:25:51;3.80;99.90
22968;DHT22;11650;48.106;-1.696;2024-01-07T00:28:16;3.80;99.90
22968;DHT22;11650;48.106;-1.696;2024-01-07T00:30:42;3.70;99.90
22968;DHT22;11650;48.106;-1.696;2024-01-07T00:33:07;3.70;99.90
22968;DHT22;11650;48.106;-1.696;2024-01-07T00:35:33;3.70;99.90
22968;DHT22;11650;48.106;-1.696;2024-01-07T00:37:59;3.70;99.90
22968;DHT22;11650;48.106;-1.696;2024-01-07T00:40:24;3.70;99.90
22968;DHT22;11650;48.106;-1.696;2024-01-07T00:42:50;3.60;99.90
22968;DHT22;11650;48.106;-1.696;2024-01-07T00:45:17;3.60;99.90
22968;DHT22;11650;48.106;-1.696;2024-01-07T00:47:43;3.60;99.90
22968;DHT22;11650;48.106;-1.696;2024-01-07T00:50:09;3.60;99.90
22968;DHT22;11650;48.106;-1.696;2024-01-07T00:52:34;3.60;99.90
22968;DHT22;11650;48.106;-1.696;2024-01-07T00:55:03;3.60;99.90
22968;DHT22;11650;48.106;-1.696;2024-01-07T00:57:29;3.50;99.90
22968;DHT22;11650;48.106;-1.696;2024-01-07T00:59:55;3.60;99.90
22968;DHT22;11650;48.106;-1.696;2024-01-07T01:02:21;3.60;99.90
22968;DHT22;11650;48.106;-1.696;2024-01-07T01:04:48;3.50;99.90
22968;DHT22;11650;48.106;-1.696;2024-01-07T01:07:14;3.50;99.90
22968;DHT22;11650;48.106;-1.696;2024-01-07T01:09:39;3.50;99.90
22968;DHT22;11650;48.106;-1.696;2024-01-07T01:12:05;3.50;99.90
22968;DHT22;11650;48.106;-1.696;2024-01-07T01:14:31;3.50;99.90
22968;DHT22;11650;48.106;-1.696;2024-01-07T01:16:56;3.50;99.90
22968;DHT22;11650;48.106;-1.696;2024-01-07T01:19:23;3.40;99.90
22968;DHT22;11650;48.106;-1.696;2024-01-07T01:21:49;3.40;99.90
22968;DHT22;11650;48.106;-1.696;2024-01-07T01:24:14;3.40;99.90
22968;DHT22;11650;48.106;-1.696;2024-01-07T01:26:40;3.40;99.90
22968;DHT22;11650;48.106;-1.696;2024-01-07T01:29:05;3.40;99.90
22968;DHT22;11650;48.106;-1.696;2024-01-07T01:31:31;3.40;99.90
22968;DHT22;11650;48.106;-1.696;2024-01-07T01:33:57;3.40;99.90
22968;DHT22;11650;48.106;-1.696;2024-01-07T01:36:22;3.30;99.90
22968;DHT22;11650;48.106;-1.696;2024-01-07T01:38:48;3.30;99.90
22968;DHT22;11650;48.106;-1.696;2024-01-07T01:41:14;3.30;99.90
22968;DHT22;11650;48.106;-1.696;2024-01-07T01:43:40;3.20;99.90
22968;DHT22;11650;48.106;-1.696;2024-01-07T01:46:05;3.30;99.90
22968;DHT22;11650;48.106;-1.696;2024-01-07T01:48:32;3.30;99.90
22968;DHT22;11650;48.106;-1.696;2024-01-07T01:50:57;3.30;99.90
22968;DHT22;11650;48.106;-1.696;2024-01-07T01:53:25;3.30;99.90
22968;DHT22;11650;48.106;-1.696;2024-01-07T01:55:52;3.30;99.90
22968;DHT22;11650;48.106;-1.696;2024-01-07T01:58:19;3.30;99.90
22968;DHT22;11650;48.106;-1.696;2024-01-07T02:00:45;3.30;99.90
22968;DHT22;11650;48.106;-1.696;2024-01-07T02:03:11;3.30;99.90
22968;DHT22;11650;48.106;-1.696;2024-01-07T02:05:37;3.30;99.90
22968;DHT22;11650;48.106;-1.696;2024-01-07T02:08:03;3.30;99.90
22968;DHT22;11650;48.106;-1.696;2024-01-07T02:10:29;3.30;99.90
22968;DHT22;11650;48.106;-1.696;2024-01-07T02:13:00;3.30;99.90
22968;DHT22;11650;48.106;-1.696;2024-01-07T02:15:26;3.30;99.90
22968;DHT22;11650;48.106;-1.696;2024-01-07T02:17:51;3.30;99.90
22968;DHT22;11650;48.106;-1.696;2024-01-07T02:20:17;3.30;99.90
22968;DHT22;11650;48.106;-1.696;2024-01-07T02:22:43;3.20;99.90
22968;DHT22;11650;48.106;-1.696;2024-01-07T02:25:08;3.30;99.90
22968;DHT22;11650;48.106;-1.696;2024-01-07T02:27:34;3.30;99.90
22968;DHT22;11650;48.106;-1.696;2024-01-07T02:30:00;3.10;99.90
22968;DHT22;11650;48.106;-1.696;2024-01-07T02:32:25;3.10;99.90
22968;DHT22;11650;48.106;-1.696;2024-01-07T02:34:52;3.10;99.90
22968;DHT22;11650;48.106;-1.696;2024-01-07T02:37:17;3.10;99.90
22968;DHT22;11650;48.106;-1.696;2024-01-07T02:39:43;3.00;99.90
22968;DHT22;11650;48.106;-1.696;2024-01-07T02:42:10;2.90;99.90
22968;DHT22;11650;48.106;-1.696;2024-01-07T02:44:35;2.90;99.90
22968;DHT22;11650;48.106;-1.696;2024-01-07T02:47:01;2.90;99.90
22968;DHT22;11650;48.106;-1.696;2024-01-07T02:49:28;3.00;99.90
22968;DHT22;11650;48.106;-1.696;2024-01-07T02:51:54;3.00;99.90
22968;DHT22;11650;48.106;-1.696;2024-01-07T02:54:19;3.00;99.90
22968;DHT22;11650;48.106;-1.696;2024-01-07T02:56:45;3.00;99.90
22968;DHT22;11650;48.106;-1.696;2024-01-07T02:59:10;3.00;99.90
22968;DHT22;11650;48.106;-1.696;2024-01-07T03:01:36;3.10;99.90
22968;DHT22;11650;48.106;-1.696;2024-01-07T03:04:06;3.10;99.90
22968;DHT22;11650;48.106;-1.696;2024-01-07T03:06:33;3.20;99.90
22968;DHT22;11650;48.106;-1.696;2024-01-07T03:08:59;3.30;99.90
22968;DHT22;11650;48.106;-1.696;2024-01-07T03:11:24;3.30;99.90
22968;DHT22;11650;48.106;-1.696;2024-01-07T03:13:50;3.40;99.90
22968;DHT22;11650;48.106;-1.696;2024-01-07T03:16:22;3.50;99.90
22968;DHT22;11650;48.106;-1.696;2024-01-07T03:18:47;3.50;99.90
22968;DHT22;11650;48.106;-1.696;2024-01-07T03:21:22;3.50;99.90
22968;DHT22;11650;48.106;-1.696;2024-01-07T03:23:49;3.60;99.90
22968;DHT22;11650;48.106;-1.696;2024-01-07T03:26:17;3.70;99.90
22968;DHT22;11650;48.106;-1.696;2024-01-07T03:28:43;3.70;99.90
22968;DHT22;11650;48.106;-1.696;2024-01-07T03:31:12;3.70;99.90
22968;DHT22;11650;48.106;-1.696;2024-01-07T03:33:39;3.70;99.90
22968;DHT22;11650;48.106;-1.696;2024-01-07T03:36:12;3.70;99.90
22968;DHT22;11650;48.106;-1.696;2024-01-07T03:38:39;3.80;99.90
22968;DHT22;11650;48.106;-1.696;2024-01-07T03:41:05;3.80;99.90
22968;DHT22;11650;48.106;-1.696;2024-01-07T03:43:31;3.90;99.90
22968;DHT22;11650;48.106;-1.696;2024-01-07T03:45:57;3.80;99.90
22968;DHT22;11650;48.106;-1.696;2024-01-07T03:48:23;3.90;99.90
22968;DHT22;11650;48.106;-1.696;2024-01-07T03:50:49;3.90;99.90
22968;DHT22;11650;48.106;-1.696;2024-01-07T03:53:15;3.90;99.90
22968;DHT22;11650;48.106;-1.696;2024-01-07T03:55:40;3.90;99.90
22968;DHT22;11650;48.106;-1.696;2024-01-07T03:58:06;4.00;99.90
22968;DHT22;11650;48.106;-1.696;2024-01-07T04:00:33;4.10;99.90
22968;DHT22;11650;48.106;-1.696;2024-01-07T04:02:58;4.10;99.90
22968;DHT22;11650;48.106;-1.696;2024-01-07T04:05:24;4.20;99.90
22968;DHT22;11650;48.106;-1.696;2024-01-07T04:07:50;4.20;99.90
22968;DHT22;11650;48.106;-1.696;2024-01-07T04:10:19;4.20;99.90
22968;DHT22;11650;48.106;-1.696;2024-01-07T04:12:45;4.20;99.90
22968;DHT22;11650;48.106;-1.696;2024-01-07T04:15:13;4.30;99.90
22968;DHT22;11650;48.106;-1.696;2024-01-07T04:17:39;4.30;99.90
22968;DHT22;11650;48.106;-1.696;2024-01-07T04:20:07;4.20;99.90
22968;DHT22;11650;48.106;-1.696;2024-01-07T04:22:33;4.20;99.90
22968;DHT22;11650;48.106;-1.696;2024-01-07T04:24:58;4.10;99.90
22968;DHT22;11650;48.106;-1.696;2024-01-07T04:27:24;4.10;99.90
22968;DHT22;11650;48.106;-1.696;2024-01-07T04:29:52;4.00;99.90
22968;DHT22;11650;48.106;-1.696;2024-01-07T04:32:18;4.10;99.90
22968;DHT22;11650;48.106;-1.696;2024-01-07T04:34:44;4.00;99.90
22968;DHT22;11650;48.106;-1.696;2024-01-07T04:37:10;4.10;99.90
22968;DHT22;11650;48.106;-1.696;2024-01-07T04:39:36;4.10;99.90
22968;DHT22;11650;48.106;-1.696;2024-01-07T04:42:02;4.10;99.90
22968;DHT22;11650;48.106;-1.696;2024-01-07T04:44:28;4.10;99.90
22968;DHT22;11650;48.106;-1.696;2024-01-07T04:46:53;4.20;99.90
22968;DHT22;11650;48.106;-1.696;2024-01-07T04:49:19;4.10;99.90
22968;DHT22;11650;48.106;-1.696;2024-01-07T04:51:45;4.10;99.90
22968;DHT22;11650;48.106;-1.696;2024-01-07T04:54:10;4.00;99.90
22968;DHT22;11650;48.106;-1.696;2024-01-07T04:56:36;4.00;99.90
22968;DHT22;11650;48.106;-1.696;2024-01-07T04:59:01;4.00;99.90
22968;DHT22;11650;48.106;-1.696;2024-01-07T05:01:27;4.00;99.90
22968;DHT22;11650;48.106;-1.696;2024-01-07T05:03:53;3.90;99.90
22968;DHT22;11650;48.106;-1.696;2024-01-07T05:06:18;3.90;99.90
22968;DHT22;11650;48.106;-1.696;2024-01-07T05:08:44;3.90;99.90
22968;DHT22;11650;48.106;-1.696;2024-01-07T05:11:09;3.90;99.90
22968;DHT22;11650;48.106;-1.696;2024-01-07T05:13:35;3.80;99.90
22968;DHT22;11650;48.106;-1.696;2024-01-07T05:16:01;3.90;99.90
22968;DHT22;11650;48.106;-1.696;2024-01-07T05:18:28;3.90;99.90
22968;DHT22;11650;48.106;-1.696;2024-01-07T05:20:53;3.90;99.90
22968;DHT22;11650;48.106;-1.696;2024-01-07T05:23:19;3.90;99.90
22968;DHT22;11650;48.106;-1.696;2024-01-07T05:25:45;4.00;99.90
22968;DHT22;11650;48.106;-1.696;2024-01-07T05:28:11;4.00;99.90
22968;DHT22;11650;48.106;-1.696;2024-01-07T05:30:38;4.00;99.90
22968;DHT22;11650;48.106;-1.696;2024-01-07T05:33:04;4.00;99.90
22968;DHT22;11650;48.106;-1.696;2024-01-07T05:35:30;4.20;99.90
22968;DHT22;11650;48.106;-1.696;2024-01-07T05:37:56;4.20;99.90
22968;DHT22;11650;48.106;-1.696;2024-01-07T05:40:22;4.30;99.90
22968;DHT22;11650;48.106;-1.696;2024-01-07T05:42:47;4.30;99.90
22968;DHT22;11650;48.106;-1.696;2024-01-07T05:45:13;4.30;99.90
22968;DHT22;11650;48.106;-1.696;2024-01-07T05:47:39;4.40;99.90
22968;DHT22;11650;48.106;-1.696;2024-01-07T05:50:06;4.50;99.90
22968;DHT22;11650;48.106;-1.696;2024-01-07T05:52:32;4.50;99.90
22968;DHT22;11650;48.106;-1.696;2024-01-07T05:54:58;4.50;99.90
22968;DHT22;11650;48.106;-1.696;2024-01-07T05:57:24;4.40;99.90
22968;DHT22;11650;48.106;-1.696;2024-01-07T05:59:49;4.50;99.90
22968;DHT22;11650;48.106;-1.696;2024-01-07T06:02:18;4.50;99.90
22968;DHT22;11650;48.106;-1.696;2024-01-07T06:04:44;4.50;99.90
22968;DHT22;11650;48.106;-1.696;2024-01-07T06:07:09;4.50;99.90
22968;DHT22;11650;48.106;-1.696;2024-01-07T06:09:35;4.60;99.90
22968;DHT22;11650;48.106;-1.696;2024-01-07T06:12:01;4.60;99.90
22968;DHT22;11650;48.106;-1.696;2024-01-07T06:14:26;4.60;99.90
22968;DHT22;11650;48.106;-1.696;2024-01-07T06:16:52;4.60;99.90
22968;DHT22;11650;48.106;-1.696;2024-01-07T06:19:18;4.70;99.90
22968;DHT22;11650;48.106;-1.696;2024-01-07T06:21:44;4.70;99.90
22968;DHT22;11650;48.106;-1.696;2024-01-07T06:24:10;4.70;99.90
22968;DHT22;11650;48.106;-1.696;2024-01-07T06:26:36;4.70;99.90
22968;DHT22;11650;48.106;-1.696;2024-01-07T06:29:02;4.70;99.90
22968;DHT22;11650;48.106;-1.696;2024-01-07T06:31:27;4.60;99.90
22968;DHT22;11650;48.106;-1.696;2024-01-07T06:33:53;4.50;99.90
22968;DHT22;11650;48.106;-1.696;2024-01-07T06:36:21;4.50;99.90
22968;DHT22;11650;48.106;-1.696;2024-01-07T06:38:47;4.40;99.90
22968;DHT22;11650;48.106;-1.696;2024-01-07T06:41:14;4.30;99.90
22968;DHT22;11650;48.106;-1.696;2024-01-07T06:43:39;4.30;99.90
22968;DHT22;11650;48.106;-1.696;2024-01-07T06:46:05;4.30;99.90
22968;DHT22;11650;48.106;-1.696;2024-01-07T06:48:31;4.30;99.90
22968;DHT22;11650;48.106;-1.696;2024-01-07T06:50:57;4.20;99.90
22968;DHT22;11650;48.106;-1.696;2024-01-07T06:53:23;4.20;99.90
22968;DHT22;11650;48.106;-1.696;2024-01-07T06:55:48;4.30;99.90
22968;DHT22;11650;48.106;-1.696;2024-01-07T06:58:14;4.30;99.90
22968;DHT22;11650;48.106;-1.696;2024-01-07T07:00:40;4.30;99.90
22968;DHT22;11650;48.106;-1.696;2024-01-07T07:03:06;4.30;99.90
22968;DHT22;11650;48.106;-1.696;2024-01-07T07:05:31;4.20;99.90
22968;DHT22;11650;48.106;-1.696;2024-01-07T07:07:57;4.30;99.90
22968;DHT22;11650;48.106;-1.696;2024-01-07T07:10:23;4.30;99.90
22968;DHT22;11650;48.106;-1.696;2024-01-07T07:12:48;4.30;99.90
22968;DHT22;11650;48.106;-1.696;2024-01-07T07:15:16;4.30;99.90
22968;DHT22;11650;48.106;-1.696;2024-01-07T07:17:42;4.30;99.90
22968;DHT22;11650;48.106;-1.696;2024-01-07T07:20:08;4.30;99.90
22968;DHT22;11650;48.106;-1.696;2024-01-07T07:22:34;4.30;99.90
22968;DHT22;11650;48.106;-1.696;2024-01-07T07:25:00;4.20;99.90
22968;DHT22;11650;48.106;-1.696;2024-01-07T07:27:25;4.30;99.90
22968;DHT22;11650;48.106;-1.696;2024-01-07T07:29:51;4.30;99.90
22968;DHT22;11650;48.106;-1.696;2024-01-07T07:32:16;4.20;99.90
22968;DHT22;11650;48.106;-1.696;2024-01-07T07:34:42;4.20;99.90
22968;DHT22;11650;48.106;-1.696;2024-01-07T07:37:08;4.10;99.90
22968;DHT22;11650;48.106;-1.696;2024-01-07T07:39:33;4.10;99.90
22968;DHT22;11650;48.106;-1.696;2024-01-07T07:41:59;4.10;99.90
22968;DHT22;11650;48.106;-1.696;2024-01-07T07:44:25;4.00;99.90
22968;DHT22;11650;48.106;-1.696;2024-01-07T07:46:50;3.90;99.90
22968;DHT22;11650;48.106;-1.696;2024-01-07T07:49:16;3.90;99.90
22968;DHT22;11650;48.106;-1.696;2024-01-07T07:51:43;3.90;99.90
22968;DHT22;11650;48.106;-1.696;2024-01-07T07:54:09;3.80;99.90
22968;DHT22;11650;48.106;-1.696;2024-01-07T07:56:34;3.90;99.90
22968;DHT22;11650;48.106;-1.696;2024-01-07T07:59:01;3.90;99.90
22968;DHT22;11650;48.106;-1.696;2024-01-07T08:01:27;3.80;99.90
22968;DHT22;11650;48.106;-1.696;2024-01-07T08:03:52;3.80;99.90
22968;DHT22;11650;48.106;-1.696;2024-01-07T08:06:18;3.80;99.90
22968;DHT22;11650;48.106;-1.696;2024-01-07T08:08:44;3.80;99.90
22968;DHT22;11650;48.106;-1.696;2024-01-07T08:11:10;3.80;99.90
22968;DHT22;11650;48.106;-1.696;2024-01-07T08:13:37;3.80;99.90
22968;DHT22;11650;48.106;-1.696;2024-01-07T08:16:04;3.80;99.90
22968;DHT22;11650;48.106;-1.696;2024-01-07T08:18:30;3.80;99.90
22968;DHT22;11650;48.106;-1.696;2024-01-07T08:20:56;3.80;99.90
22968;DHT22;11650;48.106;-1.696;2024-01-07T08:23:23;3.90;99.90
22968;DHT22;11650;48.106;-1.696;2024-01-07T08:25:49;4.00;99.90
22968;DHT22;11650;48.106;-1.696;2024-01-07T08:28:16;4.00;99.90
22968;DHT22;11650;48.106;-1.696;2024-01-07T08:30:42;4.10;99.90
22968;DHT22;11650;48.106;-1.696;2024-01-07T08:33:08;4.20;99.90
22968;DHT22;11650;48.106;-1.696;2024-01-07T08:35:33;4.20;99.90
22968;DHT22;11650;48.106;-1.696;2024-01-07T08:37:59;4.30;99.90
22968;DHT22;11650;48.106;-1.696;2024-01-07T08:40:24;4.30;99.90
22968;DHT22;11650;48.106;-1.696;2024-01-07T08:42:50;4.30;99.90
22968;DHT22;11650;48.106;-1.696;2024-01-07T08:45:15;4.30;99.90
22968;DHT22;11650;48.106;-1.696;2024-01-07T08:47:41;4.30;99.90
22968;DHT22;11650;48.106;-1.696;2024-01-07T08:50:07;4.30;99.90
22968;DHT22;11650;48.106;-1.696;2024-01-07T08:52:33;4.30;99.90
22968;DHT22;11650;48.106;-1.696;2024-01-07T08:55:01;4.30;99.90
22968;DHT22;11650;48.106;-1.696;2024-01-07T08:57:27;4.40;99.90
22968;DHT22;11650;48.106;-1.696;2024-01-07T08:59:53;4.40;99.90
22968;DHT22;11650;48.106;-1.696;2024-01-07T09:02:18;4.50;99.90
22968;DHT22;11650;48.106;-1.696;2024-01-07T09:04:44;4.60;99.90
22968;DHT22;11650;48.106;-1.696;2024-01-07T09:07:10;4.70;99.90
22968;DHT22;11650;48.106;-1.696;2024-01-07T09:09:36;4.80;99.90
22968;DHT22;11650;48.106;-1.696;2024-01-07T09:12:03;4.80;99.90
22968;DHT22;11650;48.106;-1.696;2024-01-07T09:14:29;5.00;99.90
22968;DHT22;11650;48.106;-1.696;2024-01-07T09:16:55;5.20;99.90
22968;DHT22;11650;48.106;-1.696;2024-01-07T09:19:21;5.20;99.90
22968;DHT22;11650;48.106;-1.696;2024-01-07T09:21:46;5.30;99.90
22968;DHT22;11650;48.106;-1.696;2024-01-07T09:24:12;5.30;99.90
22968;DHT22;11650;48.106;-1.696;2024-01-07T09:26:38;5.30;99.90
22968;DHT22;11650;48.106;-1.696;2024-01-07T09:29:03;5.30;99.90
22968;DHT22;11650;48.106;-1.696;2024-01-07T09:31:29;5.30;99.90
22968;DHT22;11650;48.106;-1.696;2024-01-07T09:33:54;5.30;99.90
22968;DHT22;11650;48.106;-1.696;2024-01-07T09:36:20;5.40;99.90
22968;DHT22;11650;48.106;-1.696;2024-01-07T09:38:46;5.50;99.90
22968;DHT22;11650;48.106;-1.696;2024-01-07T09:41:11;5.50;99.90
22968;DHT22;11650;48.106;-1.696;2024-01-07T09:43:37;5.60;99.90
22968;DHT22;11650;48.106;-1.696;2024-01-07T09:46:03;5.80;99.90
22968;DHT22;11650;48.106;-1.696;2024-01-07T09:48:29;6.00;99.90
22968;DHT22;11650;48.106;-1.696;2024-01-07T09:50:57;6.10;99.90
22968;DHT22;11650;48.106;-1.696;2024-01-07T09:53:25;6.10;99.90
22968;DHT22;11650;48.106;-1.696;2024-01-07T09:56:20;6.30;99.90
22968;DHT22;11650;48.106;-1.696;2024-01-07T09:58:48;6.50;99.90
22968;DHT22;11650;48.106;-1.696;2024-01-07T10:01:17;6.40;99.90
22968;DHT22;11650;48.106;-1.696;2024-01-07T10:03:42;6.50;99.90
22968;DHT22;11650;48.106;-1.696;2024-01-07T10:06:10;6.60;99.90
22968;DHT22;11650;48.106;-1.696;2024-01-07T10:08:35;6.70;99.90
22968;DHT22;11650;48.106;-1.696;2024-01-07T10:11:01;6.60;99.90
22968;DHT22;11650;48.106;-1.696;2024-01-07T10:13:27;6.60;99.90
22968;DHT22;11650;48.106;-1.696;2024-01-07T10:15:54;6.50;99.90
22968;DHT22;11650;48.106;-1.696;2024-01-07T10:18:20;6.50;99.90
22968;DHT22;11650;48.106;-1.696;2024-01-07T10:20:46;6.50;99.90
22968;DHT22;11650;48.106;-1.696;2024-01-07T10:23:11;6.40;99.90
22968;DHT22;11650;48.106;-1.696;2024-01-07T10:25:37;6.40;99.90
22968;DHT22;11650;48.106;-1.696;2024-01-07T10:28:03;6.40;99.90
22968;DHT22;11650;48.106;-1.696;2024-01-07T10:30:29;6.40;99.90
22968;DHT22;11650;48.106;-1.696;2024-01-07T10:32:59;6.50;99.90
22968;DHT22;11650;48.106;-1.696;2024-01-07T10:35:35;6.50;99.90
22968;DHT22;11650;48.106;-1.696;2024-01-07T10:38:02;6.60;99.90
22968;DHT22;11650;48.106;-1.696;2024-01-07T10:40:29;6.50;99.90
22968;DHT22;11650;48.106;-1.696;2024-01-07T10:42:55;6.50;99.90
22968;DHT22;11650;48.106;-1.696;2024-01-07T10:45:21;6.50;99.90
22968;DHT22;11650;48.106;-1.696;2024-01-07T10:47:54;6.50;99.90
22968;DHT22;11650;48.106;-1.696;2024-01-07T10:50:21;6.50;99.90
22968;DHT22;11650;48.106;-1.696;2024-01-07T10:52:50;6.50;99.90
22968;DHT22;11650;48.106;-1.696;2024-01-07T10:55:22;6.50;99.90
22968;DHT22;11650;48.106;-1.696;2024-01-07T10:57:53;6.50;99.90
22968;DHT22;11650;48.106;-1.696;2024-01-07T11:00:21;6.40;99.90
22968;DHT22;11650;48.106;-1.696;2024-01-07T11:03:14;6.50;99.90
22968;DHT22;11650;48.106;-1.696;2024-01-07T11:05:59;6.40;99.90
22968;DHT22;11650;48.106;-1.696;2024-01-07T11:08:52;6.40;99.90
22968;DHT22;11650;48.106;-1.696;2024-01-07T11:11:25;6.40;99.90
22968;DHT22;11650;48.106;-1.696;2024-01-07T11:13:51;6.50;99.90
22968;DHT22;11650;48.106;-1.696;2024-01-07T11:19:04;6.60;99.90
22968;DHT22;11650;48.106;-1.696;2024-01-07T11:21:30;6.70;99.90
22968;DHT22;11650;48.106;-1.696;2024-01-07T11:23:55;6.70;99.90
22968;DHT22;11650;48.106;-1.696;2024-01-07T11:26:22;6.80;99.90
22968;DHT22;11650;48.106;-1.696;2024-01-07T11:28:54;7.00;99.90
22968;DHT22;11650;48.106;-1.696;2024-01-07T11:34:06;6.90;99.90
22968;DHT22;11650;48.106;-1.696;2024-01-07T11:36:35;6.90;99.90
22968;DHT22;11650;48.106;-1.696;2024-01-07T11:39:01;7.10;99.90
22968;DHT22;11650;48.106;-1.696;2024-01-07T11:41:30;7.10;99.90
22968;DHT22;11650;48.106;-1.696;2024-01-07T11:43:58;7.10;99.90
22968;DHT22;11650;48.106;-1.696;2024-01-07T11:46:29;7.20;99.90
22968;DHT22;11650;48.106;-1.696;2024-01-07T11:48:57;7.20;99.90
22968;DHT22;11650;48.106;-1.696;2024-01-07T11:51:29;7.20;99.90
22968;DHT22;11650;48.106;-1.696;2024-01-07T11:53:57;7.40;99.90
22968;DHT22;11650;48.106;-1.696;2024-01-07T11:56:24;7.40;99.90
22968;DHT22;11650;48.106;-1.696;2024-01-07T11:58:49;7.60;99.90
22968;DHT22;11650;48.106;-1.696;2024-01-07T12:01:15;7.50;99.90
22968;DHT22;11650;48.106;-1.696;2024-01-07T12:03:43;7.30;99.90
22968;DHT22;11650;48.106;-1.696;2024-01-07T12:06:09;7.20;99.90
22968;DHT22;11650;48.106;-1.696;2024-01-07T12:08:40;7.20;99.90
22968;DHT22;11650;48.106;-1.696;2024-01-07T12:11:05;7.10;99.90
22968;DHT22;11650;48.106;-1.696;2024-01-07T12:13:31;7.00;99.90
22968;DHT22;11650;48.106;-1.696;2024-01-07T12:15:57;7.00;99.90
22968;DHT22;11650;48.106;-1.696;2024-01-07T12:18:23;7.00;99.90
22968;DHT22;11650;48.106;-1.696;2024-01-07T12:20:57;7.00;99.90
22968;DHT22;11650;48.106;-1.696;2024-01-07T12:23:24;7.10;99.90
22968;DHT22;11650;48.106;-1.696;2024-01-07T12:25:50;7.10;99.90
22968;DHT22;11650;48.106;-1.696;2024-01-07T12:28:19;7.20;99.90
22968;DHT22;11650;48.106;-1.696;2024-01-07T12:30:47;7.30;99.90
22968;DHT22;11650;48.106;-1.696;2024-01-07T12:33:19;7.30;99.90
22968;DHT22;11650;48.106;-1.696;2024-01-07T12:35:46;7.30;99.90
22968;DHT22;11650;48.106;-1.696;2024-01-07T12:38:12;7.20;99.90
22968;DHT22;11650;48.106;-1.696;2024-01-07T12:40:38;7.00;99.90
22968;DHT22;11650;48.106;-1.696;2024-01-07T12:43:05;7.10;99.90
22968;DHT22;11650;48.106;-1.696;2024-01-07T12:45:32;7.10;99.90
22968;DHT22;11650;48.106;-1.696;2024-01-07T12:47:58;7.00;99.90
22968;DHT22;11650;48.106;-1.696;2024-01-07T12:50:27;7.00;99.90
22968;DHT22;11650;48.106;-1.696;2024-01-07T12:52:55;8.80;99.90
22968;DHT22;11650;48.106;-1.696;2024-01-07T12:55:21;10.50;99.90
22968;DHT22;11650;48.106;-1.696;2024-01-07T12:57:47;11.80;99.90
22968;DHT22;11650;48.106;-1.696;2024-01-07T13:00:13;11.80;99.90
22968;DHT22;11650;48.106;-1.696;2024-01-07T13:02:39;12.00;99.90
22968;DHT22;11650;48.106;-1.696;2024-01-07T13:05:05;11.70;99.90
22968;DHT22;11650;48.106;-1.696;2024-01-07T13:07:32;12.30;99.90
22968;DHT22;11650;48.106;-1.696;2024-01-07T13:09:57;12.60;99.90
22968;DHT22;11650;48.106;-1.696;2024-01-07T13:12:23;13.00;99.90
22968;DHT22;11650;48.106;-1.696;2024-01-07T13:14:49;13.20;99.90
22968;DHT22;11650;48.106;-1.696;2024-01-07T13:17:15;13.80;99.90
22968;DHT22;11650;48.106;-1.696;2024-01-07T13:19:40;13.00;99.90
22968;DHT22;11650;48.106;-1.696;2024-01-07T13:22:07;12.80;99.90
22968;DHT22;11650;48.106;-1.696;2024-01-07T13:24:32;13.90;99.90
22968;DHT22;11650;48.106;-1.696;2024-01-07T13:26:58;13.40;99.90
22968;DHT22;11650;48.106;-1.696;2024-01-07T13:29:24;13.30;99.90
22968;DHT22;11650;48.106;-1.696;2024-01-07T13:31:50;13.20;99.90
22968;DHT22;11650;48.106;-1.696;2024-01-07T13:34:16;12.70;99.90
22968;DHT22;11650;48.106;-1.696;2024-01-07T13:36:46;12.60;99.90
22968;DHT22;11650;48.106;-1.696;2024-01-07T13:39:12;13.10;99.90
22968;DHT22;11650;48.106;-1.696;2024-01-07T13:41:37;13.40;99.90
22968;DHT22;11650;48.106;-1.696;2024-01-07T13:44:03;13.50;99.90
22968;DHT22;11650;48.106;-1.696;2024-01-07T13:46:29;13.60;99.90
22968;DHT22;11650;48.106;-1.696;2024-01-07T13:48:54;13.10;99.90
22968;DHT22;11650;48.106;-1.696;2024-01-07T13:51:20;13.60;99.90
22968;DHT22;11650;48.106;-1.696;2024-01-07T13:53:46;14.00;99.90
22968;DHT22;11650;48.106;-1.696;2024-01-07T13:56:12;13.80;99.90
22968;DHT22;11650;48.106;-1.696;2024-01-07T13:58:38;13.70;99.90
22968;DHT22;11650;48.106;-1.696;2024-01-07T14:01:04;14.00;99.90
22968;DHT22;11650;48.106;-1.696;2024-01-07T14:03:31;14.10;99.90
22968;DHT22;11650;48.106;-1.696;2024-01-07T14:05:58;14.60;99.90
22968;DHT22;11650;48.106;-1.696;2024-01-07T14:08:24;13.80;99.90
22968;DHT22;11650;48.106;-1.696;2024-01-07T14:10:49;14.50;99.90
22968;DHT22;11650;48.106;-1.696;2024-01-07T14:13:15;13.80;99.90
22968;DHT22;11650;48.106;-1.696;2024-01-07T14:15:42;13.80;99.90
22968;DHT22;11650;48.106;-1.696;2024-01-07T14:18:08;14.60;99.90
22968;DHT22;11650;48.106;-1.696;2024-01-07T14:20:35;15.80;99.90
22968;DHT22;11650;48.106;-1.696;2024-01-07T14:23:01;14.20;99.90
22968;DHT22;11650;48.106;-1.696;2024-01-07T14:25:26;14.10;99.90
22968;DHT22;11650;48.106;-1.696;2024-01-07T14:27:52;14.10;99.90
22968;DHT22;11650;48.106;-1.696;2024-01-07T14:30:18;14.20;99.90
22968;DHT22;11650;48.106;-1.696;2024-01-07T14:32:43;14.70;99.90
22968;DHT22;11650;48.106;-1.696;2024-01-07T14:35:11;15.20;99.90
22968;DHT22;11650;48.106;-1.696;2024-01-07T14:37:38;15.10;99.90
22968;DHT22;11650;48.106;-1.696;2024-01-07T14:40:05;14.20;99.90
22968;DHT22;11650;48.106;-1.696;2024-01-07T14:42:31;14.20;99.90
22968;DHT22;11650;48.106;-1.696;2024-01-07T14:44:56;14.70;99.90
22968;DHT22;11650;48.106;-1.696;2024-01-07T14:47:22;14.70;99.90
22968;DHT22;11650;48.106;-1.696;2024-01-07T14:49:48;14.90;99.90
22968;DHT22;11650;48.106;-1.696;2024-01-07T14:52:14;14.60;99.90
22968;DHT22;11650;48.106;-1.696;2024-01-07T14:54:40;14.40;99.90
22968;DHT22;11650;48.106;-1.696;2024-01-07T14:57:05;13.90;99.90
22968;DHT22;11650;48.106;-1.696;2024-01-07T14:59:34;14.30;99.90
22968;DHT22;11650;48.106;-1.696;2024-01-07T15:02:01;13.60;99.90
22968;DHT22;11650;48.106;-1.696;2024-01-07T15:04:27;13.70;99.90
22968;DHT22;11650;48.106;-1.696;2024-01-07T15:06:53;13.10;99.90
22968;DHT22;11650;48.106;-1.696;2024-01-07T15:09:18;13.50;99.90
22968;DHT22;11650;48.106;-1.696;2024-01-07T15:11:46;13.00;99.90
22968;DHT22;11650;48.106;-1.696;2024-01-07T15:14:14;12.70;99.90
22968;DHT22;11650;48.106;-1.696;2024-01-07T15:16:40;13.40;99.90
22968;DHT22;11650;48.106;-1.696;2024-01-07T15:19:05;12.90;99.90
22968;DHT22;11650;48.106;-1.696;2024-01-07T15:21:31;12.50;99.90
22968;DHT22;11650;48.106;-1.696;2024-01-07T15:23:57;11.20;99.90
22968;DHT22;11650;48.106;-1.696;2024-01-07T15:26:23;9.50;99.90
22968;DHT22;11650;48.106;-1.696;2024-01-07T15:28:48;8.90;99.90